Flight Track Log - Related Links

Times and Time Zones

All times are in EDT time to prevent confusion due to time zone crossing. See the AMF9313 flight status page for this flight to view local times or setup timezone preferences in your user account.

Time Position Orientation Groundspeed Altitude Reporting Facility
EDT Latitude Longitude Course Direction KTS MPH feet Rate Location/Type
Thu 07:52:10 PM 38.1867 -85.8428 232° Southwest 166 191 5,800  Level Indianapolis Center
Thu 07:53:12 PM 38.1717 -85.8978 251° West 164 189 7,800 1,756 Climbing Indianapolis Center
Thu 07:54:13 PM 38.1397 -85.9461 230° Southwest 176 203 9,400 561 Climbing Indianapolis Center
Thu 07:56:00 PM 37.9577 -86.1127 232° Southwest  Level FlightAware Approximate
Thu 07:57:00 PM 37.9203 -86.1735 232° Southwest  Level FlightAware Approximate
Thu 07:57:18 PM 37.9844 -86.1208 222° Southwest 241 277 10,100  Level Indianapolis Center
Thu 07:58:19 PM 37.9356 -86.1814 224° Southwest 241 277 10,000 -49 Descending Indianapolis Center
Thu 07:59:21 PM 37.8861 -86.2350 221° Southwest 240 276 10,000  Level Indianapolis Center
Thu 08:00:22 PM 37.8214 -86.2506 191° South 238 274 10,000  Level Indianapolis Center
Thu 08:01:24 PM 37.7561 -86.2675 192° South 237 273 10,000  Level Indianapolis Center
Thu 08:03:28 PM 37.6261 -86.2917 188° South 236 272 10,000  Level Memphis Center
Thu 08:04:28 PM 37.5617 -86.3036 188° South 235 270 10,000  Level Indianapolis Center
Thu 08:05:30 PM 37.4961 -86.3128 186° South 234 269 10,000  Level Indianapolis Center
Thu 08:06:32 PM 37.4308 -86.3231 187° South 235 270 10,000  Level Indianapolis Center
Thu 08:07:33 PM 37.3533 -86.3372 188° South 235 270 10,000  Level Indianapolis Center
Thu 08:08:35 PM 37.2867 -86.3508 189° South 236 272 10,000  Level Indianapolis Center
Thu 08:09:38 PM 37.2181 -86.3636 188° South 240 276 10,000  Level Memphis Center
Thu 08:10:38 PM 37.1536 -86.3881 197° South 241 277 10,000 -198 Level Indianapolis Center
Thu 08:11:39 PM 37.0897 -86.4119 197° South 240 276 9,600 -587 Descending Indianapolis Center
Thu 08:13:42 PM 36.9614 -86.4492 182° South 237 273 8,200 -481 Descending Indianapolis Center
Thu 08:14:46 PM 36.8947 -86.4600 187° South 236 272 8,100 -48 Descending Memphis Center
Thu 08:15:48 PM 36.8267 -86.4761 191° South 241 277 8,100  Level Memphis Center
Thu 08:16:50 PM 36.7478 -86.4928 190° South 241 277 8,100  Level Memphis Center
Thu 08:17:51 PM 36.6789 -86.5089 191° South 244 281 8,100 -326 Level Memphis Center
Thu 08:19:54 PM 36.5442 -86.5328 188° South 244 281 7,100 -686 Descending Memphis Center
Thu 08:21:47 PM 36.4167 -86.5333 180° South 232 267 5,400 -843 Descending Nashville TRACON
Thu 08:22:59 PM 36.3508 -86.5147 167° South 230 265 4,500 -735 Descending Memphis Center
Thu 08:25:03 PM 36.2292 -86.4686 163° South 229 264 3,000 -616 Descending Memphis Center
Thu 08:26:04 PM 36.1692 -86.4642 177° South 221 254 2,600 -244 Descending Memphis Center
Thu 08:27:06 PM 36.1111 -86.4636 180° South 213 245 2,500 -49 Descending Memphis Center
Thu 08:28:07 PM 36.0572 -86.4475 166° South 201 231 2,500 -195 Level Memphis Center
Thu 08:29:09 PM 36.0067 -86.4497 182° South 186 214 2,100 -387 Descending Memphis Center
Thu 08:31:00 PM 36.0000 -86.5167 191° South  Level FlightAware Approximate
Thu 08:38:00 PM 36.0090 -86.5201 343° North  Level Estimated
Thu 08:39:00 PM 36.0090 -86.5201 191° South  Level Estimated

Login

Don't have an account? Register now (free) for customized features, flight alerts, and more!